Time;durP1;ratioP1;P1;durP2;ratioP2;P2;SDS_P1;SDS_P2;PMS_P1;PMS_P2;Temp;Humidity;BMP_temperature;BMP_pressure;BME280_temperature;BME280_humidity;BME280_pressure;Samples;Min_cycle;Max_cycle;Signal;HPM_P1;HPM_P2
2023/01/14 00:01:17;;;;;;;1999.90;999.90;;;;;;;4.09;100.00;98264.94;4983985;28;20026;-84
2023/01/14 00:03:43;;;;;;;1999.90;999.90;;;;;;;4.11;100.00;98266.34;4985186;28;20039;-86
2023/01/14 00:06:12;;;;;;;1999.90;999.90;;;;;;;4.13;100.00;98263.38;4984999;28;20391;-86
2023/01/14 00:08:37;;;;;;;1999.90;999.90;;;;;;;4.21;100.00;98277.31;4982614;28;20104;-83
2023/01/14 00:11:04;;;;;;;1999.90;999.90;;;;;;;4.19;100.00;98265.09;4980991;28;20038;-85
2023/01/14 00:13:33;;;;;;;1999.90;999.90;;;;;;;4.26;100.00;98268.47;4979406;28;20031;-86
2023/01/14 00:15:59;;;;;;;1999.90;999.90;;;;;;;4.25;100.00;98259.53;4984516;28;20027;-86
2023/01/14 00:18:24;;;;;;;1999.90;999.90;;;;;;;4.39;100.00;98270.81;4991024;28;20037;-84
2023/01/14 00:21:04;;;;;;;1999.90;999.90;;;;;;;4.40;100.00;98271.66;4968940;29;20019;-85
2023/01/14 00:23:31;;;;;;;1999.90;999.90;;;;;;;4.43;100.00;98271.16;4972804;29;20031;-84
2023/01/14 00:26:03;;;;;;;1999.90;999.90;;;;;;;4.42;100.00;98264.13;4972887;29;20039;-85
2023/01/14 00:28:29;;;;;;;1999.90;999.90;;;;;;;4.42;100.00;98259.50;4973511;29;20055;-87
2023/01/14 00:31:04;;;;;;;1999.90;999.90;;;;;;;4.45;100.00;98258.19;4975881;29;20027;-86
2023/01/14 00:33:29;;;;;;;1999.90;999.90;;;;;;;4.49;100.00;98253.91;4976046;29;20027;-83
2023/01/14 00:35:55;;;;;;;1999.90;999.90;;;;;;;4.51;100.00;98257.22;4976110;29;20046;-84
2023/01/14 00:38:20;;;;;;;1999.90;999.90;;;;;;;4.40;100.00;98239.16;4975612;29;20076;-86
2023/01/14 00:40:45;;;;;;;1999.90;999.90;;;;;;;4.50;100.00;98266.38;4976487;29;20027;-84
2023/01/14 00:43:11;;;;;;;1999.90;999.90;;;;;;;4.40;100.00;98279.78;4974331;29;20034;-84
2023/01/14 00:45:36;;;;;;;1999.90;999.90;;;;;;;4.28;100.00;98275.28;4966844;29;20120;-84
2023/01/14 00:48:01;;;;;;;1999.90;999.90;;;;;;;4.27;100.00;98283.63;4960396;29;20047;-83
2023/01/14 00:50:26;;;;;;;1999.90;999.90;;;;;;;4.21;100.00;98277.31;4964672;29;20035;-85
2023/01/14 00:52:52;;;;;;;1999.90;999.90;;;;;;;4.32;100.00;98281.81;4972519;29;20063;-82
2023/01/14 00:55:17;;;;;;;1999.90;999.90;;;;;;;4.27;100.00;98294.47;4954710;29;20038;-86
2023/01/14 00:57:42;;;;;;;1999.90;999.90;;;;;;;4.30;100.00;98297.50;4968597;29;20029;-85
2023/01/14 01:00:08;;;;;;;1999.90;999.90;;;;;;;4.24;100.00;98300.38;4970101;29;20029;-86
2023/01/14 01:02:34;;;;;;;1999.90;999.90;;;;;;;4.35;100.00;98290.53;4970930;29;20039;-85
2023/01/14 01:04:59;;;;;;;1999.90;999.90;;;;;;;4.28;100.00;98280.69;4969336;29;20023;-87
2023/01/14 01:07:24;;;;;;;1999.90;999.90;;;;;;;4.29;100.00;98273.41;4972576;29;20031;-84
2023/01/14 01:09:50;;;;;;;1999.90;999.90;;;;;;;4.26;100.00;98276.59;4969363;29;20091;-87
2023/01/14 01:12:15;;;;;;;1999.90;999.90;;;;;;;4.27;100.00;98273.63;4970584;29;20028;-83
2023/01/14 01:14:40;;;;;;;1999.90;999.90;;;;;;;4.09;100.00;98265.75;4973056;29;20034;-84
2023/01/14 01:17:06;;;;;;;1999.90;999.90;;;;;;;4.17;100.00;98262.63;4970251;29;20031;-88
2023/01/14 01:19:31;;;;;;;1999.90;999.90;;;;;;;4.12;100.00;98261.75;4970784;29;20011;-87
2023/01/14 01:21:56;;;;;;;1999.90;999.90;;;;;;;4.19;100.00;98271.34;4970758;29;20078;-86
2023/01/14 01:24:21;;;;;;;1999.90;999.90;;;;;;;4.25;100.00;98267.66;4971267;29;20019;-86
2023/01/14 01:26:48;;;;;;;1999.90;999.90;;;;;;;4.34;100.00;98276.16;4972575;29;20118;-84
2023/01/14 01:29:14;;;;;;;1999.90;999.90;;;;;;;4.33;100.00;98286.19;4971328;29;20468;-89
2023/01/14 01:31:39;;;;;;;1999.90;999.90;;;;;;;4.46;100.00;98286.91;4956679;29;20027;-87
2023/01/14 01:34:05;;;;;;;1999.90;999.90;;;;;;;4.51;100.00;98295.13;4972705;29;20447;-82
2023/01/14 01:36:30;;;;;;;1999.90;999.90;;;;;;;4.47;100.00;98273.13;4971024;29;20031;-88
2023/01/14 01:38:56;;;;;;;1999.90;999.90;;;;;;;4.55;100.00;98285.41;4968171;29;20032;-88
2023/01/14 01:41:31;;;;;;;1999.90;999.90;;;;;;;4.51;100.00;98285.09;4968317;29;20032;-83
2023/01/14 01:43:57;;;;;;;1999.90;999.90;;;;;;;4.54;100.00;98284.59;4969625;29;20037;-87
2023/01/14 01:46:22;;;;;;;1999.90;999.90;;;;;;;4.46;100.00;98281.47;4966882;29;20063;-84
2023/01/14 01:48:47;;;;;;;1999.90;999.90;;;;;;;4.42;100.00;98253.28;4965887;29;20035;-85
2023/01/14 01:51:19;;;;;;;1999.90;999.90;;;;;;;4.56;100.00;98273.53;4971197;29;20031;-86
2023/01/14 01:53:49;;;;;;;1999.90;999.90;;;;;;;4.48;100.00;98274.75;4972279;29;20024;-84
2023/01/14 01:56:19;;;;;;;1999.90;999.90;;;;;;;4.33;100.00;98255.56;4971162;29;20035;-87
2023/01/14 01:58:45;;;;;;;1999.90;999.90;;;;;;;4.30;100.00;98269.59;4970100;29;20031;-88
2023/01/14 02:01:13;;;;;;;1999.90;999.90;;;;;;;4.25;100.00;98270.38;4970023;28;20083;-88
2023/01/14 02:03:42;;;;;;;1999.90;999.90;;;;;;;4.23;100.00;98280.59;4974644;29;20023;-85
2023/01/14 02:06:08;;;;;;;1999.90;999.90;;;;;;;4.16;100.00;98288.09;4974687;29;20039;-90
2023/01/14 02:08:36;;;;;;;1999.90;999.90;;;;;;;4.15;100.00;98286.44;4975196;29;20058;-87
2023/01/14 02:11:23;;;;;;;1999.90;999.90;;;;;;;4.29;100.00;98293.16;4976371;29;20039;-84
2023/01/14 02:13:59;;;;;;;1999.90;999.90;;;;;;;4.26;100.00;98292.84;4975161;29;20047;-86
2023/01/14 02:16:43;;;;;;;1999.90;999.90;;;;;;;4.18;100.00;98285.94;4975873;29;20019;-88
2023/01/14 02:19:34;;;;;;;1999.90;999.90;;;;;;;4.28;100.00;98296.13;4975338;29;20115;-87
2023/01/14 02:22:21;;;;;;;1999.90;999.90;;;;;;;4.32;100.00;98303.47;4942920;29;20039;-85
2023/01/14 02:25:02;;;;;;;1999.90;999.90;;;;;;;4.21;100.00;98298.97;4975631;29;20035;-87
2023/01/14 02:27:36;;;;;;;1999.90;999.90;;;;;;;4.32;100.00;98297.28;4957216;29;20028;-87
2023/01/14 02:30:07;;;;;;;1999.90;999.90;;;;;;;4.20;100.00;98291.91;4973335;29;20042;-85
2023/01/14 02:32:40;;;;;;;1999.90;999.90;;;;;;;4.29;100.00;98292.34;4972018;29;20090;-87
2023/01/14 02:35:22;;;;;;;1999.90;999.90;;;;;;;4.30;100.00;98302.09;4970192;29;20031;-88
2023/01/14 02:38:13;;;;;;;1999.90;999.90;;;;;;;4.26;100.00;98298.25;4969877;29;20027;-85
2023/01/14 02:40:51;;;;;;;1999.90;999.90;;;;;;;4.26;100.00;98298.25;4969603;29;20019;-88
2023/01/14 02:46:27;;;;;;;1999.90;999.90;;;;;;;4.34;100.00;98295.13;4966193;29;20045;-85
2023/01/14 02:48:54;;;;;;;1999.90;999.90;;;;;;;4.38;100.00;98298.16;4949984;29;20513;-89
2023/01/14 02:51:20;;;;;;;1999.90;999.90;;;;;;;4.33;100.00;98299.72;4970783;29;20051;-82
2023/01/14 02:53:46;;;;;;;1999.90;999.90;;;;;;;4.24;100.00;98305.78;4970985;29;20031;-85
2023/01/14 02:56:11;;;;;;;1999.90;999.90;;;;;;;4.15;100.00;98299.13;4973404;29;20027;-87
2023/01/14 02:58:40;;;;;;;1999.90;999.90;;;;;;;4.20;100.00;98310.88;4971655;29;20111;-86
2023/01/14 03:01:34;;;;;;;1999.90;999.90;;;;;;;4.11;100.00;98311.50;4974515;29;20016;-83
2023/01/14 03:04:15;;;;;;;1999.90;999.90;;;;;;;4.18;100.00;98312.19;4963363;29;20015;-87
2023/01/14 03:07:01;;;;;;;1999.90;999.90;;;;;;;4.08;100.00;98306.59;4976463;28;20130;-89
2023/01/14 03:09:42;;;;;;;1999.90;999.90;;;;;;;4.04;100.00;98317.09;4974604;29;20070;-86
2023/01/14 03:12:46;;;;;;;1999.90;999.90;;;;;;;4.03;100.00;98314.63;4973651;28;20024;-85
2023/01/14 03:15:31;;;;;;;1999.90;999.90;;;;;;;4.06;100.00;98325.78;4973277;29;20030;-86
2023/01/14 03:18:03;;;;;;;1999.90;999.90;;;;;;;3.94;100.00;98327.75;4974308;29;20094;-87
2023/01/14 03:20:34;;;;;;;1999.90;999.90;;;;;;;3.74;100.00;98305.72;4974632;29;20079;-85
2023/01/14 03:23:05;;;;;;;1999.90;999.90;;;;;;;3.79;100.00;98312.03;4974866;29;20111;-83
2023/01/14 03:25:35;;;;;;;1999.90;999.90;;;;;;;3.64;100.00;98313.66;4974412;29;20027;-84
2023/01/14 03:28:02;;;;;;;1999.90;999.90;;;;;;;3.58;100.00;98328.97;4957902;29;20040;-86
2023/01/14 03:30:32;;;;;;;1999.90;999.90;;;;;;;3.51;100.00;98322.88;4975035;29;20031;-85
2023/01/14 03:33:06;;;;;;;1999.90;999.90;;;;;;;3.43;100.00;98323.28;4975594;29;20087;-88
2023/01/14 03:35:36;;;;;;;1999.90;999.90;;;;;;;3.44;100.00;98332.22;4975560;29;20019;-86
2023/01/14 03:38:12;;;;;;;1999.90;999.90;;;;;;;3.37;100.00;98326.94;4975686;29;20042;-87
2023/01/14 03:40:39;;;;;;;1999.90;999.90;;;;;;;3.36;100.00;98346.09;4974527;29;20083;-85
2023/01/14 03:43:14;;;;;;;1999.90;999.90;;;;;;;3.26;100.00;98345.91;4973420;29;20055;-83
2023/01/14 03:45:41;;;;;;;1999.90;999.90;;;;;;;3.19;100.00;98357.66;4956522;29;20067;-82
2023/01/14 03:48:09;;;;;;;1999.90;999.90;;;;;;;3.03;100.00;98352.16;4973836;29;20022;-85
2023/01/14 03:50:44;;;;;;;1999.90;999.90;;;;;;;3.01;100.00;98352.38;4938235;29;20059;-89
2023/01/14 03:53:21;;;;;;;1999.90;999.90;;;;;;;2.94;100.00;98349.00;4955066;29;20050;-86
2023/01/14 03:56:00;;;;;;;1999.90;999.90;;;;;;;3.02;100.00;98362.13;4954764;29;20039;-86
2023/01/14 03:58:37;;;;;;;1999.90;999.90;;;;;;;3.07;100.00;98362.25;4952041;29;20047;-86
2023/01/14 04:01:19;;;;;;;1999.90;999.90;;;;;;;3.10;100.00;98369.06;4937143;29;20028;-85
2023/01/14 04:03:46;;;;;;;1999.90;999.90;;;;;;;3.01;100.00;98365.06;4954973;29;20032;-84
2023/01/14 04:06:12;;;;;;;1999.90;999.90;;;;;;;2.96;100.00;98392.81;4952843;29;20038;-87
2023/01/14 04:08:37;;;;;;;1999.90;999.90;;;;;;;2.93;100.00;98387.88;4952238;29;20027;-87
2023/01/14 04:11:03;;;;;;;1999.90;999.90;;;;;;;2.91;100.00;98397.28;4952544;29;20051;-85
2023/01/14 04:16:12;;;;;;;1999.90;999.90;;;;;;;2.82;100.00;98398.69;4952807;29;20046;-84
2023/01/14 04:18:37;;;;;;;1999.90;999.90;;;;;;;2.77;100.00;98393.97;4953689;29;20043;-86
2023/01/14 04:21:02;;;;;;;1999.90;999.90;;;;;;;2.74;100.00;98391.75;4952666;29;20032;-86
2023/01/14 04:23:28;;;;;;;1999.90;999.90;;;;;;;2.67;100.00;98402.66;4935667;29;20035;-87
2023/01/14 04:25:57;;;;;;;1999.90;999.90;;;;;;;2.65;100.00;98404.78;4954188;29;20116;-85
2023/01/14 04:28:23;;;;;;;1999.90;999.90;;;;;;;2.57;100.00;98412.38;4953760;29;20031;-87
2023/01/14 04:30:49;;;;;;;1999.90;999.90;;;;;;;2.54;100.00;98407.44;4954607;29;20028;-85
2023/01/14 04:33:14;;;;;;;1999.90;999.90;;;;;;;2.46;100.00;98408.63;4964997;29;20027;-86
2023/01/14 04:35:39;;;;;;;1999.90;999.90;;;;;;;2.54;100.00;98424.47;4960721;29;20089;-85
2023/01/14 04:38:05;;;;;;;1999.90;999.90;;;;;;;2.52;100.00;98428.47;4964585;29;20027;-83
2023/01/14 04:40:30;;;;;;;1999.90;999.90;;;;;;;2.58;100.00;98439.16;4955816;29;20034;-86
2023/01/14 04:42:55;;;;;;;1999.90;999.90;;;;;;;2.58;100.00;98446.44;4973694;29;20030;-86
2023/01/14 04:45:21;;;;;;;1999.90;999.90;;;;;;;2.55;100.00;98438.81;4980046;28;20057;-86
2023/01/14 04:47:49;;;;;;;1999.90;999.90;;;;;;;2.51;100.00;98430.34;4993291;28;20026;-86
2023/01/14 04:53:15;;;;;;;1999.90;999.90;;;;;;;2.65;100.00;98441.75;4991842;28;20097;-84
2023/01/14 04:55:43;;;;;;;1999.90;999.90;;;;;;;2.55;100.00;98439.63;4992835;28;20059;-85
2023/01/14 04:58:10;;;;;;;1999.90;999.90;;;;;;;2.51;100.00;98446.53;4993914;28;20010;-86
2023/01/14 05:00:37;;;;;;;1999.90;999.90;;;;;;;2.58;100.00;98459.94;4978546;28;20019;-88
2023/01/14 05:03:07;;;;;;;1999.90;999.90;;;;;;;2.54;100.00;98464.13;4978042;28;20015;-86
2023/01/14 05:05:34;;;;;;;1999.90;999.90;;;;;;;2.40;100.00;98465.41;4976694;28;20039;-82
2023/01/14 05:08:00;;;;;;;1999.90;999.90;;;;;;;2.43;100.00;98473.03;4976175;28;20090;-86
2023/01/14 05:10:26;;;;;;;1999.90;999.90;;;;;;;2.31;100.00;98480.28;4993091;28;20074;-85
2023/01/14 05:12:58;;;;;;;1999.90;999.90;;;;;;;2.33;100.00;98480.88;4993005;28;20034;-86
2023/01/14 05:15:35;;;;;;;1999.90;999.90;;;;;;;2.25;100.00;98473.13;4994018;28;20051;-86
2023/01/14 05:18:01;;;;;;;1999.90;999.90;;;;;;;2.17;100.00;98466.97;4993237;28;20030;-83
2023/01/14 05:20:27;;;;;;;1999.90;999.90;;;;;;;2.24;100.00;98471.47;4993130;28;20131;-81
2023/01/14 05:23:01;;;;;;;1999.90;999.90;;;;;;;2.23;100.00;98480.59;4978753;28;20127;-84
2023/01/14 05:25:28;;;;;;;1999.90;999.90;;;;;;;2.27;100.00;98476.41;4974296;29;20059;-85
2023/01/14 05:27:58;;;;;;;1999.90;999.90;;;;;;;2.23;100.00;98475.19;4967047;29;20027;-87
2023/01/14 05:30:23;;;;;;;1999.90;999.90;;;;;;;2.30;100.00;98473.22;4938896;29;20028;-84
2023/01/14 05:32:48;;;;;;;1999.90;999.90;;;;;;;2.26;100.00;98474.75;4955958;29;20028;-87
2023/01/14 05:35:14;;;;;;;1999.90;999.90;;;;;;;2.30;100.00;98489.44;4972839;28;20019;-86
2023/01/14 05:37:39;;;;;;;1999.90;999.90;;;;;;;2.14;100.00;98494.41;4978998;29;19999;-83
2023/01/14 05:40:05;;;;;;;1999.90;999.90;;;;;;;2.07;100.00;98490.16;4978701;29;20412;-85
2023/01/14 05:48:00;;;;;;;1999.90;999.90;;;;;;;1.98;100.00;98484.25;4980323;28;20018;-83
2023/01/14 05:50:25;;;;;;;1999.90;999.90;;;;;;;2.04;100.00;98493.28;4980706;29;20050;-85
2023/01/14 05:52:50;;;;;;;1999.90;999.90;;;;;;;1.83;100.00;98491.91;4963620;29;20031;-83
2023/01/14 05:55:15;;;;;;;1999.90;999.90;;;;;;;1.76;100.00;98484.94;4980324;29;20034;-83
2023/01/14 05:57:41;;;;;;;1999.90;999.90;;;;;;;1.74;100.00;98489.75;4979581;29;20038;-82
2023/01/14 06:00:07;;;;;;;1999.90;999.90;;;;;;;1.76;100.00;98474.16;4977993;29;20027;-83
2023/01/14 06:08:01;;;;;;;1999.90;999.90;;;;;;;1.91;100.00;98483.50;4978130;29;20063;-84
2023/01/14 06:10:27;;;;;;;1999.90;999.90;;;;;;;1.88;100.00;98475.06;4976449;29;20070;-85
2023/01/14 06:12:58;;;;;;;1999.90;999.90;;;;;;;1.91;100.00;98483.50;4977820;29;20027;-85
2023/01/14 06:15:25;;;;;;;1999.90;999.90;;;;;;;1.82;100.00;98479.47;4976971;29;20019;-84
2023/01/14 06:18:08;;;;;;;1999.90;999.90;;;;;;;1.77;100.00;98487.44;4959453;29;20079;-85
2023/01/14 06:20:34;;;;;;;1999.90;999.90;;;;;;;2.68;100.00;98503.41;4975269;29;20031;-81
2023/01/14 06:22:59;;;;;;;1999.90;999.90;;;;;;;2.82;100.00;98504.81;4975485;29;20024;-84
2023/01/14 06:25:24;;;;;;;1999.90;999.90;;;;;;;3.52;100.00;98504.88;4976076;29;20054;-83
2023/01/14 06:27:49;;;;;;;1999.90;999.90;;;;;;;2.80;100.00;98500.72;4975854;29;20027;-81
2023/01/14 06:30:15;;;;;;;1999.90;999.90;;;;;;;2.42;100.00;98501.09;4975092;29;20027;-83
2023/01/14 06:32:40;;;;;;;1999.90;999.90;;;;;;;2.08;100.00;98499.91;4974380;29;20095;-86
2023/01/14 06:35:06;;;;;;;1999.90;999.90;;;;;;;1.96;100.00;98510.63;4975609;29;20027;-84
2023/01/14 06:37:31;;;;;;;1999.90;999.90;;;;;;;1.92;100.00;98517.53;4956717;29;20019;-86
2023/01/14 06:39:56;;;;;;;1999.90;999.90;;;;;;;1.81;100.00;98514.78;4973331;29;20019;-84
2023/01/14 06:42:22;;;;;;;1999.90;999.90;;;;;;;1.69;100.00;98514.72;4974800;29;20042;-87
2023/01/14 06:44:47;;;;;;;1999.90;999.90;;;;;;;1.82;100.00;98511.84;4975028;29;20038;-85
2023/01/14 06:47:12;;;;;;;1999.90;999.90;;;;;;;1.84;100.00;98503.53;4957697;29;20042;-85
2023/01/14 06:49:38;;;;;;;1999.90;999.90;;;;;;;1.81;100.00;98507.50;4958852;29;20027;-86
2023/01/14 06:52:03;;;;;;;1999.90;999.90;;;;;;;1.79;100.00;98504.19;4959111;29;20055;-86
2023/01/14 06:54:28;;;;;;;1999.90;999.90;;;;;;;1.76;100.00;98528.91;4976714;29;20035;-85
2023/01/14 06:56:54;;;;;;;1999.90;999.90;;;;;;;1.64;100.00;98530.72;4977613;29;20022;-86
2023/01/14 06:59:19;;;;;;;1999.90;999.90;;;;;;;1.65;100.00;98529.66;4967694;29;20042;-86
2023/01/14 07:01:44;;;;;;;1999.90;999.90;;;;;;;1.72;100.00;98530.44;4966197;29;20023;-85
2023/01/14 07:04:09;;;;;;;1999.90;999.90;;;;;;;1.63;100.00;98529.88;4975142;29;20028;-84
2023/01/14 07:06:35;;;;;;;1999.90;999.90;;;;;;;1.78;100.00;98520.63;4975793;29;20050;-85
2023/01/14 07:09:00;;;;;;;1999.90;999.90;;;;;;;1.82;100.00;98519.91;4978134;29;20035;-86
2023/01/14 07:11:25;;;;;;;1999.90;999.90;;;;;;;2.08;100.00;98532.28;4973700;29;20051;-83
2023/01/14 07:13:51;;;;;;;1999.90;999.90;;;;;;;2.16;100.00;98532.78;4973868;29;20059;-81
2023/01/14 07:16:16;;;;;;;1999.90;999.90;;;;;;;2.10;100.00;98530.97;4960354;29;20035;-82
2023/01/14 07:18:41;;;;;;;1999.90;999.90;;;;;;;1.91;100.00;98534.75;4942465;29;20032;-82
2023/01/14 07:21:07;;;;;;;1999.90;999.90;;;;;;;1.95;100.00;98544.03;4943355;29;20118;-87
2023/01/14 07:23:32;;;;;;;1999.90;999.90;;;;;;;1.88;100.00;98545.19;4934933;29;20091;-84
2023/01/14 07:25:57;;;;;;;1999.90;999.90;;;;;;;2.00;100.00;98548.78;4941496;29;20078;-88
2023/01/14 07:28:25;;;;;;;1999.90;999.90;;;;;;;2.16;100.00;98557.06;4939128;29;20083;-84
2023/01/14 07:30:51;;;;;;;1999.90;999.90;;;;;;;2.30;100.00;98551.50;4950065;29;20079;-82
2023/01/14 07:33:17;;;;;;;1999.90;999.90;;;;;;;2.25;100.00;98554.91;4956227;29;20043;-86
2023/01/14 07:35:44;;;;;;;1999.90;999.90;;;;;;;2.31;100.00;98553.97;4953058;29;20059;-86
2023/01/14 07:38:10;;;;;;;1999.90;999.90;;;;;;;2.49;100.00;98550.41;4969732;29;20058;-83
2023/01/14 07:40:35;;;;;;;1999.90;999.90;;;;;;;2.59;100.00;98562.31;4952807;29;20071;-84
2023/01/14 07:43:00;;;;;;;1999.90;999.90;;;;;;;2.55;100.00;98560.28;4970052;29;20019;-83
2023/01/14 07:45:27;;;;;;;1999.90;999.90;;;;;;;2.74;100.00;98578.09;4970214;29;20039;-84
2023/01/14 07:47:53;;;;;;;1999.90;999.90;;;;;;;2.89;100.00;98577.66;4970890;29;20034;-84
2023/01/14 07:50:19;;;;;;;1999.90;999.90;;;;;;;2.95;100.00;98572.16;4971097;28;20031;-85
2023/01/14 07:52:54;;;;;;;1999.90;999.90;;;;;;;3.05;100.00;98566.19;4955422;29;20098;-87
2023/01/14 07:55:20;;;;;;;1999.90;999.90;;;;;;;3.10;100.00;98560.94;4972705;28;20396;-82
2023/01/14 07:57:46;;;;;;;1999.90;999.90;;;;;;;3.12;100.00;98562.34;4954426;28;20046;-85
2023/01/14 08:00:12;;;;;;;1999.90;999.90;;;;;;;3.17;100.00;98559.75;4970484;28;20019;-83
2023/01/14 08:02:37;;;;;;;1999.90;999.90;;;;;;;3.25;100.00;98572.13;4969708;28;20051;-82
2023/01/14 08:05:03;;;;;;;1999.90;999.90;;;;;;;3.10;100.00;98571.75;4968948;28;20058;-83
2023/01/14 08:07:29;;;;;;;1999.90;999.90;;;;;;;3.17;100.00;98575.97;4965323;28;20386;-85
2023/01/14 08:09:54;;;;;;;1999.90;999.90;;;;;;;3.09;100.00;98586.28;4960342;28;20031;-84
2023/01/14 08:12:20;;;;;;;1999.90;999.90;;;;;;;3.18;100.00;98591.13;4963868;28;20031;-83
2023/01/14 08:14:45;;;;;;;1999.90;999.90;;;;;;;3.36;100.00;98606.44;4956587;29;20027;-80
2023/01/14 08:17:10;;;;;;;1999.90;999.90;;;;;;;3.29;100.00;98602.19;4955698;29;20035;-79
2023/01/14 08:19:36;;;;;;;1999.90;999.90;;;;;;;3.23;100.00;98607.47;4955027;29;20545;-77
2023/01/14 08:22:01;;;;;;;1999.90;999.90;;;;;;;3.21;100.00;98609.59;4958742;29;20041;-85
2023/01/14 08:24:26;;;;;;;1999.90;999.90;;;;;;;3.30;100.00;98617.34;4954815;29;20429;-84
2023/01/14 08:26:52;;;;;;;1999.90;999.90;;;;;;;3.28;100.00;98619.47;4957885;29;20063;-85
2023/01/14 08:29:17;;;;;;;1999.90;999.90;;;;;;;3.20;100.00;98607.94;4962444;28;20020;-81
2023/01/14 08:31:43;;;;;;;1999.90;999.90;;;;;;;3.32;100.00;98610.66;4963457;29;20074;-87
2023/01/14 08:34:09;;;;;;;1999.90;999.90;;;;;;;3.23;100.00;98602.06;4961899;28;20060;-83
2023/01/14 08:36:34;;;;;;;1999.90;999.90;;;;;;;3.22;100.00;98613.13;4964421;28;20027;-84
2023/01/14 08:39:00;;;;;;;1999.90;999.90;;;;;;;3.37;100.00;98604.56;4957731;28;20019;-82
2023/01/14 08:41:25;;;;;;;1999.90;999.90;;;;;;;3.08;100.00;98590.03;4955319;28;20444;-80
2023/01/14 08:43:51;;;;;;;1999.90;999.90;;;;;;;2.71;100.00;98597.44;4956736;29;20019;-84
2023/01/14 08:46:17;;;;;;;1999.90;999.90;;;;;;;3.10;100.00;98601.47;4955843;29;20027;-85
2023/01/14 08:48:43;;;;;;;1999.90;999.90;;;;;;;3.30;100.00;98603.84;4940750;29;20099;-85
2023/01/14 08:51:11;;;;;;;1999.90;999.90;;;;;;;3.11;100.00;98603.09;4942731;29;20026;-84
2023/01/14 08:53:37;;;;;;;1999.90;999.90;;;;;;;3.30;100.00;98601.13;4958435;29;20023;-84
2023/01/14 08:56:04;;;;;;;1999.90;999.90;;;;;;;3.37;100.00;98597.28;4954367;29;20902;-83
2023/01/14 08:58:30;;;;;;;1999.90;999.90;;;;;;;3.42;100.00;98589.28;4953992;29;20039;-83
2023/01/14 09:01:01;;;;;;;1999.90;999.90;;;;;;;3.49;100.00;98599.97;4953833;29;20448;-87
2023/01/14 09:03:32;;;;;;;1999.90;999.90;;;;;;;3.35;100.00;98587.75;4954219;29;20035;-85
2023/01/14 09:05:59;;;;;;;1999.90;999.90;;;;;;;3.35;100.00;98598.56;4959558;29;20118;-82
2023/01/14 09:17:05;;;;;;;1999.90;999.90;;;;;;;3.85;100.00;98616.00;4962855;28;20046;-82
2023/01/14 09:19:33;;;;;;;1999.90;999.90;;;;;;;3.83;100.00;98615.38;4963078;28;20027;-86
2023/01/14 09:21:59;;;;;;;1999.90;999.90;;;;;;;3.89;100.00;98605.50;4958852;28;20039;-79
2023/01/14 09:24:25;;;;;;;1999.90;999.90;;;;;;;3.98;100.00;98604.91;4959053;28;20504;-81
2023/01/14 09:26:53;;;;;;;1999.90;999.90;;;;;;;4.03;100.00;98613.16;4961365;28;20035;-84
2023/01/14 09:29:18;;;;;;;1999.90;999.90;;;;;;;4.11;100.00;98614.66;4959439;28;20066;-81
2023/01/14 09:31:43;;;;;;;1999.90;999.90;;;;;;;4.29;100.00;98626.16;4957306;28;20050;-82
2023/01/14 09:34:09;;;;;;;1999.90;999.90;;;;;;;4.33;100.00;98631.94;4956294;29;20403;-78
2023/01/14 09:36:34;;;;;;;1999.90;999.90;;;;;;;4.39;100.00;98617.44;4963419;28;20031;-84
2023/01/14 09:38:59;;;;;;;1999.90;999.90;;;;;;;4.43;100.00;98626.72;4964361;28;20113;-85
2023/01/14 09:41:29;;;;;;;1999.90;999.90;;;;;;;4.47;100.00;98614.38;4947076;28;20122;-83
2023/01/14 09:43:55;;;;;;;1999.90;999.90;;;;;;;4.47;100.00;98605.41;4968517;28;20011;-84
2023/01/14 09:46:24;;;;;;;1999.90;999.90;;;;;;;4.65;100.00;98613.34;4968840;28;20210;-83
2023/01/14 09:48:52;;;;;;;1999.90;999.90;;;;;;;4.60;100.00;98613.28;4963848;28;20035;-87
2023/01/14 09:51:47;;;;;;;1999.90;999.90;;;;;;;4.72;100.00;98616.75;4953808;28;20054;-88
2023/01/14 09:54:44;;;;;;;1999.90;999.90;;;;;;;4.72;100.00;98623.00;4961835;29;20035;-88
2023/01/14 09:57:21;;;;;;;1999.90;999.90;;;;;;;4.76;100.00;98626.06;4973841;28;20051;-85
2023/01/14 10:00:00;;;;;;;1999.90;999.90;;;;;;;4.73;100.00;98627.34;4964459;28;20043;-88
2023/01/14 10:02:43;;;;;;;1999.90;999.90;;;;;;;5.13;100.00;98640.03;4976307;29;20039;-91
2023/01/14 10:05:27;;;;;;;1999.90;999.90;;;;;;;5.03;100.00;98635.25;4976903;29;20053;-88
2023/01/14 10:07:53;;;;;;;1999.90;999.90;;;;;;;5.19;100.00;98641.75;4977552;28;20040;-86
2023/01/14 10:10:32;;;;;;;1999.90;999.90;;;;;;;5.11;100.00;98626.69;4961527;29;20385;-89
2023/01/14 10:13:03;;;;;;;1999.90;999.90;;;;;;;5.01;100.00;98615.66;4977143;28;20103;-89
2023/01/14 10:15:35;;;;;;;1999.90;999.90;;;;;;;5.21;100.00;98626.91;4959515;28;20011;-88
2023/01/14 10:18:14;;;;;;;1999.90;999.90;;;;;;;5.45;100.00;98624.06;4977672;28;20020;-87
2023/01/14 10:20:51;;;;;;;1999.90;999.90;;;;;;;5.56;100.00;98623.13;4978360;28;20024;-86
2023/01/14 10:23:21;;;;;;;1999.90;999.90;;;;;;;5.47;100.00;98606.47;4970375;28;20032;-86
2023/01/14 10:25:49;;;;;;;1999.90;999.90;;;;;;;5.57;100.00;98613.94;4962251;29;20046;-90
2023/01/14 10:28:17;;;;;;;1999.90;999.90;;;;;;;5.60;100.00;98616.16;4965482;29;20073;-85
2023/01/14 10:30:43;;;;;;;1999.90;999.90;;;;;;;5.30;100.00;98602.91;4965794;28;20035;-86
2023/01/14 10:33:14;;;;;;;1999.90;999.90;;;;;;;4.58;100.00;98604.53;4965751;28;20050;-83
2023/01/14 10:35:43;;;;;;;1999.90;999.90;;;;;;;4.88;100.00;98607.84;4964021;28;20074;-80
2023/01/14 10:38:15;;;;;;;1999.90;999.90;;;;;;;4.94;100.00;98582.50;4970794;28;20046;-87
2023/01/14 10:40:41;;;;;;;1999.90;999.90;;;;;;;5.19;100.00;98590.25;4970880;28;20027;-83
2023/01/14 10:43:18;;;;;;;1999.90;999.90;;;;;;;5.27;100.00;98598.78;4974550;28;20136;-83
2023/01/14 10:45:43;;;;;;;1999.90;999.90;;;;;;;5.35;100.00;98598.41;4968543;28;20519;-86
2023/01/14 10:48:20;;;;;;;1999.90;999.90;;;;;;;5.12;100.00;98601.25;4968988;28;20023;-84
2023/01/14 10:50:45;;;;;;;1999.90;999.90;;;;;;;5.14;100.00;98599.09;4967788;28;20031;-86
2023/01/14 10:53:19;;;;;;;1999.90;999.90;;;;;;;5.11;100.00;98598.75;4969432;28;20125;-82
2023/01/14 10:55:55;;;;;;;1999.90;999.90;;;;;;;5.33;100.00;98586.97;4966775;28;20119;-87
2023/01/14 10:58:36;;;;;;;1999.90;999.90;;;;;;;5.42;100.00;98594.72;4952578;28;20028;-86
2023/01/14 11:01:06;;;;;;;1999.90;999.90;;;;;;;5.68;100.00;98600.28;4971593;28;20054;-88
2023/01/14 11:03:39;;;;;;;1999.90;999.90;;;;;;;5.46;100.00;98584.97;4972172;28;20038;-84
2023/01/14 11:06:16;;;;;;;1999.90;999.90;;;;;;;5.76;100.00;98578.13;4977816;28;20516;-87
2023/01/14 11:08:50;;;;;;;1999.90;999.90;;;;;;;5.84;100.00;98576.91;4971209;28;20478;-88
2023/01/14 11:11:37;;;;;;;1999.90;999.90;;;;;;;5.97;100.00;98568.44;4956824;28;20031;-78
2023/01/14 11:14:27;;;;;;;1999.90;999.90;;;;;;;6.08;100.00;98570.22;4948178;29;20031;-80
2023/01/14 11:16:53;;;;;;;1999.90;999.90;;;;;;;5.81;100.00;98561.13;4965395;28;20050;-80
2023/01/14 11:19:21;;;;;;;1999.90;999.90;;;;;;;6.15;100.00;98567.31;4961410;29;20053;-78
2023/01/14 11:21:50;;;;;;;1999.90;999.90;;;;;;;5.97;100.00;98568.44;4959130;29;20047;-88
2023/01/14 11:24:29;;;;;;;1999.90;999.90;;;;;;;5.88;100.00;98562.63;4956267;29;20031;-88
2023/01/14 11:27:03;;;;;;;1999.90;999.90;;;;;;;5.90;100.00;98559.63;4956996;29;20035;-78
2023/01/14 11:29:35;;;;;;;1999.90;999.90;;;;;;;6.13;100.00;98554.00;4952801;29;20034;-77
2023/01/14 11:32:07;;;;;;;1999.90;999.90;;;;;;;6.43;100.00;98559.81;4954082;29;20037;-81